createdAt,value
2023-05-31T00:00:46.029Z,99392.59
2023-05-31T00:03:50.283Z,99396.16
2023-05-31T00:06:52.419Z,99393.53
2023-05-31T00:09:54.526Z,99394.53
2023-05-31T00:12:58.265Z,99396.38
2023-05-31T00:16:00.231Z,99391.91
2023-05-31T00:19:02.563Z,99395.41
2023-05-31T00:22:04.907Z,99398.88
2023-05-31T00:25:07.117Z,99391.69
2023-05-31T00:28:10.970Z,99396.03
2023-05-31T00:31:14.117Z,99401.44
2023-05-31T00:34:16.117Z,99397.09
2023-05-31T00:37:21.408Z,99397.16
2023-05-31T00:40:24.736Z,99390.75
2023-05-31T00:43:29.665Z,99391.53
2023-05-31T00:46:32.850Z,99389.72
2023-05-31T00:49:35.521Z,99394.16
2023-05-31T00:52:38.141Z,99396.88
2023-05-31T00:55:41.229Z,99407.66
2023-05-31T00:58:46.412Z,99404.97
2023-05-31T01:01:48.490Z,99405.84
2023-05-31T01:04:51.692Z,99396.16
2023-05-31T01:07:54.089Z,99398.16
2023-05-31T01:10:58.787Z,99403.59
2023-05-31T01:14:05.799Z,99396.44
2023-05-31T01:17:14.904Z,99392.91
2023-05-31T01:20:19.150Z,99400.03
2023-05-31T01:23:43.236Z,99402.09
2023-05-31T01:26:48.287Z,99398.72
2023-05-31T01:29:51.618Z,99390.09
2023-05-31T01:32:56.636Z,99388.38
2023-05-31T01:35:58.711Z,99394.72
2023-05-31T01:39:02.040Z,99382.16
2023-05-31T01:42:09.816Z,99388.44
2023-05-31T01:45:13.189Z,99381.41
2023-05-31T01:48:15.292Z,99380.53
2023-05-31T01:51:18.404Z,99373.41
2023-05-31T01:54:20.533Z,99380.63
2023-05-31T01:57:25.264Z,99383.22
2023-05-31T02:00:27.848Z,99386.75
2023-05-31T02:03:30.483Z,99383.28
2023-05-31T02:06:36.503Z,99381.63
2023-05-31T02:09:38.951Z,99381.75
2023-05-31T02:12:43.608Z,99379.97
2023-05-31T02:15:46.723Z,99383.50
2023-05-31T02:18:49.168Z,99375.53
2023-05-31T02:21:51.693Z,99377.28
2023-05-31T02:24:53.958Z,99380.81
2023-05-31T02:27:58.564Z,99376.41
2023-05-31T02:31:02.145Z,99375.66
2023-05-31T02:34:05.788Z,99375.81
2023-05-31T02:37:07.948Z,99371.34
2023-05-31T02:40:10.216Z,99364.34
2023-05-31T02:43:13.922Z,99377.75
2023-05-31T02:46:16.099Z,99363.66
2023-05-31T02:49:19.093Z,99380.81
2023-05-31T02:52:22.183Z,99376.63
2023-05-31T02:55:48.242Z,99379.41
2023-05-31T02:59:01.043Z,99376.13
2023-05-31T03:02:23.130Z,99373.66
2023-05-31T03:05:51.681Z,99377.50
2023-05-31T03:08:54.566Z,99372.41
2023-05-31T03:11:57.145Z,99376.31
2023-05-31T03:15:01.305Z,99364.91
2023-05-31T03:18:04.403Z,99370.50
2023-05-31T03:21:07.173Z,99362.38
2023-05-31T03:24:09.269Z,99365.16
2023-05-31T03:27:12.397Z,99368.84
2023-05-31T03:30:16.273Z,99373.34
2023-05-31T03:33:25.965Z,99371.69
2023-05-31T03:36:29.380Z,99383.50
2023-05-31T03:39:35.452Z,99375.59
2023-05-31T03:42:39.184Z,99373.00
2023-05-31T03:45:44.191Z,99376.59
2023-05-31T03:48:46.627Z,99373.84
2023-05-31T03:51:48.613Z,99383.50
2023-05-31T03:54:51.070Z,99372.63
2023-05-31T03:57:53.116Z,99378.56
2023-05-31T04:00:57.568Z,99378.38
2023-05-31T04:04:02.641Z,99377.44
2023-05-31T04:07:07.026Z,99379.41
2023-05-31T04:10:09.812Z,99375.78
2023-05-31T04:13:11.976Z,99379.06
2023-05-31T04:16:16.715Z,99370.75
2023-05-31T04:19:19.028Z,99368.63
2023-05-31T04:22:21.932Z,99374.03
2023-05-31T04:25:24.262Z,99382.97
2023-05-31T04:28:27.255Z,99378.13
2023-05-31T04:31:49.305Z,99370.84
2023-05-31T04:34:59.273Z,99374.25
2023-05-31T04:38:06.054Z,99373.94
2023-05-31T04:41:08.447Z,99380.06
2023-05-31T04:44:10.906Z,99374.59
2023-05-31T04:47:16.777Z,99383.44
2023-05-31T04:50:18.997Z,99386.91
2023-05-31T04:53:21.468Z,99382.34
2023-05-31T04:56:23.657Z,99389.19
2023-05-31T04:59:29.669Z,99392.44
2023-05-31T05:02:33.158Z,99385.97
2023-05-31T05:05:36.862Z,99382.06
2023-05-31T05:08:39.054Z,99383.63
2023-05-31T05:11:41.632Z,99381.53
2023-05-31T05:14:43.876Z,99391.88
2023-05-31T05:17:50.152Z,99380.78
2023-05-31T05:20:52.387Z,99384.72
2023-05-31T05:23:59.553Z,99386.13
2023-05-31T05:27:03.726Z,99386.75
2023-05-31T05:30:06.578Z,99385.50
2023-05-31T05:33:10.025Z,99395.84
2023-05-31T05:36:12.493Z,99395.69
2023-05-31T05:39:20.710Z,99399.09
2023-05-31T05:42:25.033Z,99403.09
2023-05-31T05:45:28.492Z,99405.25
2023-05-31T05:48:33.171Z,99413.81
2023-05-31T05:51:36.822Z,99408.94
2023-05-31T05:54:43.288Z,99408.59
2023-05-31T05:57:48.171Z,99412.78
2023-05-31T06:01:08.907Z,99418.72
2023-05-31T06:04:15.197Z,99411.22
2023-05-31T06:07:18.704Z,99418.94
2023-05-31T06:10:21.079Z,99417.50
2023-05-31T06:13:23.661Z,99414.34
2023-05-31T06:16:26.115Z,99417.69
2023-05-31T06:19:32.216Z,99413.88
2023-05-31T06:22:34.315Z,99417.28
2023-05-31T06:25:37.255Z,99411.66
2023-05-31T06:28:39.411Z,99413.94
2023-05-31T06:31:50.066Z,99405.28
2023-05-31T06:34:54.421Z,99416.66
2023-05-31T06:37:59.096Z,99412.81
2023-05-31T06:41:01.703Z,99413.47
2023-05-31T06:44:04.250Z,99414.84
2023-05-31T06:47:16.408Z,99405.22
2023-05-31T06:50:42.604Z,99407.41
2023-05-31T06:54:04.770Z,99406.66
2023-05-31T06:57:09.139Z,99413.34
2023-05-31T07:00:11.790Z,99412.09
2023-05-31T07:03:16.652Z,99403.97
2023-05-31T07:06:22.419Z,99408.91
2023-05-31T07:09:27.006Z,99402.28
2023-05-31T07:12:31.935Z,99402.03
2023-05-31T07:15:34.495Z,99400.78
2023-05-31T07:18:36.710Z,99402.19
2023-05-31T07:21:40.243Z,99400.53
2023-05-31T07:24:42.461Z,99406.69
2023-05-31T07:27:44.657Z,99410.72
2023-05-31T07:30:46.879Z,99409.94
2023-05-31T07:33:51.949Z,99399.19
2023-05-31T07:36:56.558Z,99402.94
2023-05-31T07:39:58.756Z,99401.16
2023-05-31T07:43:00.803Z,99396.41
2023-05-31T07:46:02.870Z,99391.38
2023-05-31T07:49:05.330Z,99401.47
2023-05-31T07:52:09.212Z,99394.00
2023-05-31T07:55:11.488Z,99393.69
2023-05-31T07:58:14.111Z,99391.75
2023-05-31T08:01:17.166Z,99399.94
2023-05-31T08:04:19.205Z,99395.16
2023-05-31T08:07:22.753Z,99390.72
2023-05-31T08:10:24.829Z,99391.75
2023-05-31T08:13:27.017Z,99389.66
2023-05-31T08:16:29.556Z,99387.56
2023-05-31T08:19:32.694Z,99386.94
2023-05-31T08:22:36.160Z,99392.28
2023-05-31T08:25:41.373Z,99388.84
2023-05-31T08:28:43.718Z,99389.59
2023-05-31T08:31:45.693Z,99379.44
2023-05-31T08:34:47.652Z,99380.06
2023-05-31T08:37:51.533Z,99377.28
2023-05-31T08:40:53.473Z,99386.94
2023-05-31T08:43:55.657Z,99365.66
2023-05-31T08:46:59.187Z,99376.75
2023-05-31T08:50:01.992Z,99370.47
2023-05-31T08:53:07.032Z,99370.56
2023-05-31T08:56:10.028Z,99370.44
2023-05-31T08:59:17.648Z,99370.25
2023-05-31T09:02:21.763Z,99367.75
2023-05-31T09:05:23.916Z,99365.38
2023-05-31T09:08:28.571Z,99365.16
2023-05-31T09:11:31.048Z,99363.34
2023-05-31T09:14:33.253Z,99363.81
2023-05-31T09:17:35.565Z,99360.13
2023-05-31T09:20:37.645Z,99359.72
2023-05-31T09:23:52.263Z,99359.31
2023-05-31T09:26:58.841Z,99363.88
2023-05-31T09:30:04.651Z,99346.84
2023-05-31T09:33:07.605Z,99354.59
2023-05-31T09:36:09.789Z,99348.00
2023-05-31T09:39:14.330Z,99347.91
2023-05-31T09:42:16.370Z,99342.31
2023-05-31T09:45:18.862Z,99348.16
2023-05-31T09:48:21.104Z,99346.22
2023-05-31T09:51:23.190Z,99343.50
2023-05-31T09:54:28.948Z,99345.97
2023-05-31T09:57:33.187Z,99346.72
2023-05-31T10:00:35.629Z,99338.94
2023-05-31T10:03:38.315Z,99330.19
2023-05-31T10:06:40.616Z,99334.16
2023-05-31T10:09:44.107Z,99328.34
2023-05-31T10:12:51.121Z,99332.09
2023-05-31T10:15:55.031Z,99328.16
2023-05-31T10:19:00.049Z,99331.00
2023-05-31T10:22:04.589Z,99334.31
2023-05-31T10:25:12.080Z,99315.69
2023-05-31T10:28:16.737Z,99318.56
2023-05-31T10:31:30.097Z,99327.34
2023-05-31T10:34:32.514Z,99316.25
2023-05-31T10:37:34.820Z,99307.84
2023-05-31T10:40:43.577Z,99322.31
2023-05-31T10:43:48.452Z,99309.53
2023-05-31T10:46:54.077Z,99306.72
2023-05-31T10:49:57.060Z,99301.41
2023-05-31T10:53:12.252Z,99293.00
2023-05-31T10:56:16.172Z,99299.34
2023-05-31T10:59:18.547Z,99293.88
2023-05-31T11:02:21.193Z,99296.63
2023-05-31T11:05:25.376Z,99288.50
2023-05-31T11:08:30.223Z,99290.22
2023-05-31T11:11:47.799Z,99287.44
2023-05-31T11:15:01.876Z,99291.75
2023-05-31T11:18:08.248Z,99297.03
2023-05-31T11:21:12.381Z,99283.72
2023-05-31T11:24:26.090Z,99284.84
2023-05-31T11:27:39.808Z,99276.41
2023-05-31T11:30:47.511Z,99274.81
2023-05-31T11:33:58.504Z,99271.63
2023-05-31T11:37:03.495Z,99268.25
2023-05-31T11:40:12.208Z,99264.53
2023-05-31T11:43:20.528Z,99268.25
2023-05-31T11:46:23.164Z,99264.94
2023-05-31T11:49:26.650Z,99268.84
2023-05-31T11:52:29.731Z,99260.56
2023-05-31T11:55:34.039Z,99252.41
2023-05-31T11:58:37.938Z,99246.25
2023-05-31T12:01:43.205Z,99249.75
2023-05-31T12:04:46.039Z,99254.69
2023-05-31T12:07:48.460Z,99243.81
2023-05-31T12:10:50.747Z,99242.06
2023-05-31T12:13:56.813Z,99234.41
2023-05-31T12:17:01.538Z,99228.00
2023-05-31T12:20:06.560Z,99229.38
2023-05-31T12:23:12.094Z,99215.94
2023-05-31T12:26:15.066Z,99223.78
2023-05-31T12:29:19.367Z,99222.69
2023-05-31T12:32:22.368Z,99217.53
2023-05-31T12:35:24.510Z,99218.59
2023-05-31T12:38:31.310Z,99221.09
2023-05-31T12:41:34.712Z,99223.34
2023-05-31T12:44:40.299Z,99210.97
2023-05-31T12:47:42.394Z,99206.25
2023-05-31T12:50:47.134Z,99208.16
2023-05-31T12:53:49.667Z,99206.75
2023-05-31T12:56:52.283Z,99209.56
2023-05-31T13:00:03.613Z,99205.81
2023-05-31T13:03:08.105Z,99199.84
2023-05-31T13:06:10.284Z,99200.72
2023-05-31T13:09:13.760Z,99200.88
2023-05-31T13:12:16.209Z,99204.50
2023-05-31T13:15:19.654Z,99191.69
2023-05-31T13:18:22.732Z,99202.34
2023-05-31T13:21:24.854Z,99196.56
2023-05-31T13:24:26.971Z,99193.44
2023-05-31T13:27:28.998Z,99187.22
2023-05-31T13:30:32.732Z,99185.09
2023-05-31T13:33:34.803Z,99178.72
2023-05-31T13:36:38.358Z,99186.09
2023-05-31T13:39:40.358Z,99172.91
2023-05-31T13:42:42.971Z,99173.53
2023-05-31T13:45:49.382Z,99174.88
2023-05-31T13:48:53.162Z,99182.56
2023-05-31T13:51:55.379Z,99175.50
2023-05-31T13:54:57.752Z,99172.69
2023-05-31T13:57:59.725Z,99164.53
2023-05-31T14:01:03.477Z,99164.44
2023-05-31T14:04:06.536Z,99164.53
2023-05-31T14:07:08.617Z,99158.56
2023-05-31T14:10:11.206Z,99151.25
2023-05-31T14:13:16.426Z,99151.47
2023-05-31T14:16:23.684Z,99141.59
2023-05-31T14:19:36.030Z,99137.22
2023-05-31T14:22:38.253Z,99143.13
2023-05-31T14:25:40.576Z,99141.34
2023-05-31T14:28:42.653Z,99132.34
2023-05-31T14:31:48.653Z,99122.63
2023-05-31T14:34:51.846Z,99134.94
2023-05-31T14:37:58.262Z,99128.56
2023-05-31T14:41:16.617Z,99118.25
2023-05-31T14:44:18.889Z,99113.66
2023-05-31T14:47:22.757Z,99114.22
2023-05-31T14:50:30.034Z,99115.13
2023-05-31T14:53:34.202Z,99109.31
2023-05-31T14:56:36.762Z,99106.16
2023-05-31T14:59:38.589Z,99098.50
2023-05-31T15:05:44.229Z,99101.19
2023-05-31T15:08:46.465Z,99099.06
2023-05-31T15:11:48.665Z,99084.25
2023-05-31T15:14:50.850Z,99097.91
2023-05-31T15:17:53.318Z,99087.66
2023-05-31T15:20:56.848Z,99100.28
2023-05-31T15:23:59.044Z,99093.28
2023-05-31T15:27:01.127Z,99086.56
2023-05-31T15:30:04.956Z,99085.91
2023-05-31T15:33:07.113Z,99089.09
2023-05-31T15:36:13.233Z,99084.91
2023-05-31T15:39:17.008Z,99087.03
2023-05-31T15:42:19.548Z,99083.88
2023-05-31T15:45:23.433Z,99088.41
2023-05-31T15:48:26.434Z,99076.97
2023-05-31T15:51:30.374Z,99075.38
2023-05-31T15:54:32.733Z,99074.50
2023-05-31T15:57:38.666Z,99069.00
2023-05-31T16:00:41.516Z,99067.47
2023-05-31T16:03:44.505Z,99062.94
2023-05-31T16:06:48.243Z,99062.94
2023-05-31T16:09:50.383Z,99059.88
2023-05-31T16:12:52.485Z,99065.44
2023-05-31T16:15:54.794Z,99065.06
2023-05-31T16:18:59.959Z,99060.22
2023-05-31T16:22:04.172Z,99066.28
2023-05-31T16:25:08.881Z,99057.41
2023-05-31T16:28:15.330Z,99053.34
2023-05-31T16:31:19.324Z,99044.13
2023-05-31T16:34:22.964Z,99048.97
2023-05-31T16:37:26.705Z,99045.25
2023-05-31T16:40:30.033Z,99045.31
2023-05-31T16:43:32.132Z,99039.91
2023-05-31T16:46:36.124Z,99039.03
2023-05-31T16:49:38.480Z,99028.31
2023-05-31T16:52:42.756Z,99034.03
2023-05-31T16:55:45.702Z,99023.53
2023-05-31T16:58:47.861Z,99015.38
2023-05-31T17:01:50.086Z,99022.94
2023-05-31T17:04:52.501Z,99023.94
2023-05-31T17:07:56.463Z,99026.66
2023-05-31T17:11:02.764Z,99022.06
2023-05-31T17:14:05.050Z,99016.06
2023-05-31T17:17:07.308Z,99010.63
2023-05-31T17:20:11.498Z,99014.44
2023-05-31T17:23:16.633Z,99014.84
2023-05-31T17:26:21.038Z,99004.50
2023-05-31T17:29:23.566Z,99015.16
2023-05-31T17:32:25.742Z,98999.50
2023-05-31T17:35:28.088Z,99004.19
2023-05-31T17:38:32.043Z,98997.28
2023-05-31T17:41:34.503Z,99001.00
2023-05-31T17:44:37.180Z,98994.25
2023-05-31T17:47:39.338Z,98994.47
2023-05-31T17:50:41.427Z,98982.16
2023-05-31T17:53:47.072Z,98984.88
2023-05-31T17:56:54.849Z,98985.13
2023-05-31T17:59:58.350Z,98979.00
2023-05-31T18:03:00.631Z,98977.38
2023-05-31T18:06:03.764Z,98976.91
2023-05-31T18:09:07.539Z,98969.22
2023-05-31T18:12:10.118Z,98966.16
2023-05-31T18:15:13.412Z,98964.69
2023-05-31T18:18:18.520Z,98966.19
2023-05-31T18:21:23.414Z,98970.25
2023-05-31T18:24:27.358Z,98969.63
2023-05-31T18:27:29.585Z,98970.25
2023-05-31T18:30:34.933Z,98965.22
2023-05-31T18:33:37.028Z,98963.59
2023-05-31T18:36:39.365Z,98959.41
2023-05-31T18:39:46.984Z,98959.06
2023-05-31T18:42:49.940Z,98963.25
2023-05-31T18:45:52.136Z,98964.47
2023-05-31T18:48:55.955Z,98962.25
2023-05-31T18:52:01.972Z,98958.28
2023-05-31T18:55:06.256Z,98959.53
2023-05-31T18:58:08.280Z,98957.13
2023-05-31T19:01:10.644Z,98962.19
2023-05-31T19:04:13.187Z,98961.44
2023-05-31T19:07:16.440Z,98966.06
2023-05-31T19:10:21.888Z,98961.38
2023-05-31T19:13:27.029Z,98955.16
2023-05-31T19:16:29.155Z,98960.41
2023-05-31T19:19:32.188Z,98960.28
2023-05-31T19:22:47.658Z,98963.56
2023-05-31T19:25:51.899Z,98962.38
2023-05-31T19:28:54.071Z,98966.59
2023-05-31T19:31:56.177Z,98968.94
2023-05-31T19:34:59.485Z,98959.91
2023-05-31T19:38:06.757Z,98970.16
2023-05-31T19:41:10.310Z,98964.13
2023-05-31T19:44:13.914Z,98971.69
2023-05-31T19:47:16.255Z,98976.03
2023-05-31T19:50:21.498Z,98976.81
2023-05-31T19:53:23.939Z,98978.78
2023-05-31T19:56:27.713Z,98979.91
2023-05-31T19:59:32.202Z,98986.16
2023-05-31T20:02:34.796Z,98984.28
2023-05-31T20:05:36.760Z,98985.13
2023-05-31T20:08:38.988Z,98980.59
2023-05-31T20:11:42.289Z,98986.94
2023-05-31T20:14:44.711Z,98985.09
2023-05-31T20:17:47.277Z,98989.47
2023-05-31T20:20:52.147Z,98981.25
2023-05-31T20:23:54.859Z,98980.84
2023-05-31T20:26:58.430Z,98984.91
2023-05-31T20:30:00.672Z,98983.78
2023-05-31T20:33:02.872Z,98984.59
2023-05-31T20:36:05.418Z,98980.78
2023-05-31T20:39:07.519Z,98982.91
2023-05-31T20:42:11.691Z,98980.50
2023-05-31T20:45:14.025Z,98978.88
2023-05-31T20:48:16.229Z,98980.06
2023-05-31T20:51:20.884Z,98980.06
2023-05-31T20:54:23.162Z,98986.69
2023-05-31T20:57:27.164Z,98977.53
2023-05-31T21:00:29.768Z,98980.63
2023-05-31T21:03:32.071Z,98978.72
2023-05-31T21:06:34.714Z,98970.75
2023-05-31T21:09:37.122Z,98981.59
2023-05-31T21:12:42.070Z,98983.34
2023-05-31T21:15:44.480Z,98980.06
2023-05-31T21:18:47.179Z,98984.59
2023-05-31T21:21:49.340Z,98984.47
2023-05-31T21:24:55.001Z,98984.84
2023-05-31T21:27:59.214Z,98982.25
2023-05-31T21:31:02.131Z,98994.34
2023-05-31T21:34:04.325Z,98996.25
2023-05-31T21:37:07.163Z,98993.16
2023-05-31T21:40:13.396Z,98992.53
2023-05-31T21:43:18.581Z,99000.13
2023-05-31T21:46:23.254Z,99000.38
2023-05-31T21:49:25.522Z,98999.50
2023-05-31T21:52:32.316Z,99000.47
2023-05-31T21:55:38.139Z,98998.66
2023-05-31T21:58:41.783Z,98986.44
2023-05-31T22:01:44.950Z,98996.00
2023-05-31T22:04:47.300Z,98994.47
2023-05-31T22:07:50.758Z,98995.00
2023-05-31T22:10:52.865Z,98993.63
2023-05-31T22:13:56.327Z,98990.22
2023-05-31T22:17:03.519Z,98985.47
2023-05-31T22:20:10.789Z,98995.84
2023-05-31T22:23:12.896Z,98998.81
2023-05-31T22:26:17.937Z,98998.28
2023-05-31T22:29:21.632Z,98992.81
2023-05-31T22:32:23.820Z,98996.41
2023-05-31T22:35:26.551Z,98999.38
2023-05-31T22:38:28.642Z,98994.25
2023-05-31T22:41:30.791Z,98997.25
2023-05-31T22:44:34.772Z,98990.75
2023-05-31T22:47:37.264Z,99002.41
2023-05-31T22:50:39.292Z,99003.03
2023-05-31T22:53:41.417Z,98999.66
2023-05-31T22:56:43.365Z,98999.38
2023-05-31T22:59:48.713Z,98997.63
2023-05-31T23:02:51.633Z,98997.63
2023-05-31T23:05:58.272Z,98998.72
2023-05-31T23:09:02.722Z,98993.84
2023-05-31T23:12:07.568Z,98991.72
2023-05-31T23:15:12.164Z,98996.53
2023-05-31T23:18:15.840Z,98999.25
2023-05-31T23:21:18.158Z,99006.59
2023-05-31T23:24:20.074Z,98996.59
2023-05-31T23:27:24.549Z,98989.25
2023-05-31T23:30:28.360Z,98994.38
2023-05-31T23:33:30.762Z,98999.41
2023-05-31T23:36:32.920Z,99002.47
2023-05-31T23:39:35.188Z,99004.16
2023-05-31T23:42:38.257Z,99006.31
2023-05-31T23:45:41.803Z,99002.06
2023-05-31T23:48:43.903Z,99006.09
2023-05-31T23:51:46.500Z,98995.94
2023-05-31T23:54:48.712Z,98999.84
2023-05-31T23:57:50.817Z,98995.06
